createdAt,value
2023-01-10T00:00:26.819Z,22.28
2023-01-10T00:01:26.691Z,22.28
2023-01-10T00:02:26.725Z,22.28
2023-01-10T00:03:26.692Z,22.28
2023-01-10T00:04:26.771Z,22.27
2023-01-10T00:05:26.653Z,22.28
2023-01-10T07:07:36.074Z,22.81
2023-01-10T08:02:34.589Z,23.16
2023-01-10T08:03:34.568Z,23.19
2023-01-10T08:04:34.371Z,23.24
2023-01-10T08:05:34.365Z,23.27
2023-01-10T08:06:34.356Z,23.31
2023-01-10T08:09:34.334Z,23.38
2023-01-10T08:11:34.315Z,23.43
2023-01-10T08:12:34.289Z,23.43
2023-01-10T08:13:34.316Z,23.46
2023-01-10T08:14:34.361Z,23.46
2023-01-10T08:15:34.270Z,23.49
2023-01-10T08:16:34.275Z,23.50
2023-01-10T08:17:34.254Z,23.51
2023-01-10T08:19:34.227Z,23.54
2023-01-10T08:20:34.221Z,23.55
2023-01-10T08:22:34.547Z,23.61
2023-01-10T08:23:34.309Z,23.63
2023-01-10T08:24:34.195Z,23.65
2023-01-10T08:25:34.190Z,23.67
2023-01-10T08:27:34.161Z,23.70
2023-01-10T08:28:34.155Z,23.71
2023-01-10T08:29:34.151Z,23.71
2023-01-10T08:30:34.147Z,23.71
2023-01-10T08:32:34.125Z,23.73
2023-01-10T08:33:34.135Z,23.72
2023-01-10T08:34:34.137Z,23.71
2023-01-10T08:35:34.084Z,23.70
2023-01-10T08:37:34.072Z,23.72
2023-01-10T08:38:34.090Z,23.75
2023-01-10T08:40:34.048Z,23.79
2023-01-10T08:41:34.042Z,23.79
2023-01-10T08:42:34.033Z,23.77
2023-01-10T08:43:34.043Z,23.80
2023-01-10T08:45:34.062Z,23.81
2023-01-10T08:48:33.969Z,23.83
2023-01-10T08:49:33.970Z,23.84
2023-01-10T08:50:33.966Z,23.85
2023-01-10T08:51:34.151Z,23.86
2023-01-10T08:52:33.936Z,23.88
2023-01-10T08:53:33.937Z,23.89
2023-01-10T08:54:33.917Z,23.89
2023-01-10T08:55:33.935Z,23.88
2023-01-10T08:56:34.131Z,23.80
2023-01-10T08:57:33.899Z,23.67
2023-01-10T08:58:33.921Z,23.54
2023-01-10T09:00:33.867Z,23.26
2023-01-10T09:01:34.315Z,23.11
2023-01-10T09:03:34.319Z,22.97
2023-01-10T09:05:33.846Z,23.00
2023-01-10T09:06:34.147Z,23.05
2023-01-10T09:07:33.889Z,23.12
2023-01-10T09:08:34.150Z,23.18
2023-01-10T09:09:34.179Z,23.24
2023-01-10T09:11:33.884Z,23.37
2023-01-10T09:17:34.131Z,23.65
2023-01-10T10:07:35.367Z,23.20
2023-01-10T10:27:34.230Z,24.13
2023-01-10T10:29:36.522Z,24.04
2023-01-10T10:49:33.872Z,23.13
2023-01-10T15:16:30.379Z,23.08
2023-01-10T18:42:28.440Z,22.82
2023-01-10T18:43:28.430Z,22.83
2023-01-10T18:44:28.437Z,22.83
2023-01-10T18:45:28.416Z,22.82
2023-01-10T18:46:28.603Z,22.82
2023-01-10T18:47:28.424Z,22.82
2023-01-10T18:48:28.394Z,22.82
2023-01-10T18:49:28.386Z,22.82
2023-01-10T18:50:28.367Z,22.82
2023-01-10T18:51:28.357Z,22.82
2023-01-10T18:52:28.348Z,22.81
2023-01-10T18:53:28.337Z,22.82
2023-01-10T18:54:28.345Z,22.81
2023-01-10T18:55:28.331Z,22.82
2023-01-10T18:56:28.310Z,22.81
2023-01-10T18:57:28.303Z,22.80
2023-01-10T18:58:28.304Z,22.80
2023-01-10T18:59:28.282Z,22.81
2023-01-10T19:00:28.273Z,22.80
2023-01-10T19:01:28.298Z,22.80
2023-01-10T19:02:28.293Z,22.80
2023-01-10T19:03:28.269Z,22.80
2023-01-10T19:04:28.235Z,22.80
2023-01-10T19:05:28.225Z,22.80
2023-01-10T19:06:28.219Z,22.80
2023-01-10T19:07:28.225Z,22.80
2023-01-10T19:08:28.202Z,22.80
2023-01-10T19:09:28.381Z,22.79
2023-01-10T19:10:29.043Z,22.80
2023-01-10T19:11:28.176Z,22.79
2023-01-10T19:12:28.158Z,22.79
2023-01-10T19:27:28.393Z,22.79
2023-01-10T19:41:28.885Z,22.77
2023-01-10T19:53:28.393Z,22.75
